sensor_id;sensor_type;location;lat;lon;timestamp;pressure;altitude;pressure_sealevel;temperature;humidity
74794;BME280;63320;50.768;6.724;2023-02-13T00:02:07;102276.75;;;7.12;80.93
74794;BME280;63320;50.768;6.724;2023-02-13T00:04:32;102281.13;;;7.19;81.06
74794;BME280;63320;50.768;6.724;2023-02-13T00:06:58;102272.41;;;7.14;80.96
74794;BME280;63320;50.768;6.724;2023-02-13T00:09:23;102278.53;;;7.13;80.74
74794;BME280;63320;50.768;6.724;2023-02-13T00:11:50;102284.63;;;6.97;81.49
74794;BME280;63320;50.768;6.724;2023-02-13T00:14:15;102284.63;;;7.09;81.05
74794;BME280;63320;50.768;6.724;2023-02-13T00:16:40;102277.66;;;7.04;81.09
74794;BME280;63320;50.768;6.724;2023-02-13T00:19:06;102275.91;;;7.01;80.83
74794;BME280;63320;50.768;6.724;2023-02-13T00:21:31;102275.03;;;7.00;81.09
74794;BME280;63320;50.768;6.724;2023-02-13T00:23:57;102275.03;;;7.05;80.89
74794;BME280;63320;50.768;6.724;2023-02-13T00:26:22;102271.53;;;7.01;80.85
74794;BME280;63320;50.768;6.724;2023-02-13T00:28:49;102275.03;;;7.02;80.99
74794;BME280;63320;50.768;6.724;2023-02-13T00:31:15;102281.16;;;7.04;80.47
74794;BME280;63320;50.768;6.724;2023-02-13T00:33:41;102274.16;;;6.91;80.51
74794;BME280;63320;50.768;6.724;2023-02-13T00:36:09;102275.06;;;6.88;80.95
74794;BME280;63320;50.768;6.724;2023-02-13T00:38:35;102272.44;;;6.90;80.88
74794;BME280;63320;50.768;6.724;2023-02-13T00:41:00;102275.91;;;6.92;80.64
74794;BME280;63320;50.768;6.724;2023-02-13T00:43:26;102269.81;;;6.88;80.68
74794;BME280;63320;50.768;6.724;2023-02-13T00:45:52;102260.19;;;6.83;80.98
74794;BME280;63320;50.768;6.724;2023-02-13T00:48:18;102261.97;;;6.90;80.89
74794;BME280;63320;50.768;6.724;2023-02-13T00:50:45;102261.97;;;6.88;81.10
74794;BME280;63320;50.768;6.724;2023-02-13T00:53:10;102257.59;;;6.92;81.03
74794;BME280;63320;50.768;6.724;2023-02-13T00:55:35;102256.72;;;6.91;81.22
74794;BME280;63320;50.768;6.724;2023-02-13T00:58:01;102249.75;;;6.95;80.77
74794;BME280;63320;50.768;6.724;2023-02-13T01:00:26;102248.88;;;6.94;80.97
74794;BME280;63320;50.768;6.724;2023-02-13T01:02:53;102251.47;;;6.97;81.02
74794;BME280;63320;50.768;6.724;2023-02-13T01:05:18;102243.66;;;6.93;80.99
74794;BME280;63320;50.768;6.724;2023-02-13T01:07:44;102248.88;;;6.90;81.11
74794;BME280;63320;50.768;6.724;2023-02-13T01:10:09;102245.41;;;6.94;81.23
74794;BME280;63320;50.768;6.724;2023-02-13T01:12:35;102237.56;;;6.98;81.22
74794;BME280;63320;50.768;6.724;2023-02-13T01:15:00;102236.69;;;7.04;80.83
74794;BME280;63320;50.768;6.724;2023-02-13T01:17:26;102234.03;;;7.10;80.60
74794;BME280;63320;50.768;6.724;2023-02-13T01:19:53;102241.03;;;7.00;80.90
74794;BME280;63320;50.768;6.724;2023-02-13T01:22:18;102240.16;;;7.00;80.91
74794;BME280;63320;50.768;6.724;2023-02-13T01:24:43;102233.16;;;7.02;80.84
74794;BME280;63320;50.768;6.724;2023-02-13T01:27:09;102238.44;;;6.93;81.16
74794;BME280;63320;50.768;6.724;2023-02-13T01:29:34;102241.91;;;6.96;81.09
74794;BME280;63320;50.768;6.724;2023-02-13T01:32:00;102236.66;;;6.92;81.08
74794;BME280;63320;50.768;6.724;2023-02-13T01:34:25;102241.03;;;6.97;81.15
74794;BME280;63320;50.768;6.724;2023-02-13T01:36:52;102236.69;;;6.95;81.05
74794;BME280;63320;50.768;6.724;2023-02-13T01:39:17;102236.69;;;6.90;80.90
74794;BME280;63320;50.768;6.724;2023-02-13T01:41:42;102236.66;;;6.83;81.07
74794;BME280;63320;50.768;6.724;2023-02-13T01:47:07;102236.66;;;6.67;81.78
74794;BME280;63320;50.768;6.724;2023-02-13T01:49:33;102238.44;;;6.74;81.53
74794;BME280;63320;50.768;6.724;2023-02-13T01:52:00;102237.56;;;6.68;81.32
74794;BME280;63320;50.768;6.724;2023-02-13T01:54:28;102240.16;;;6.71;81.50
74794;BME280;63320;50.768;6.724;2023-02-13T01:56:57;102234.94;;;6.60;81.75
74794;BME280;63320;50.768;6.724;2023-02-13T01:59:27;102235.78;;;6.52;81.88
74794;BME280;63320;50.768;6.724;2023-02-13T02:01:54;102236.66;;;6.40;82.22
74794;BME280;63320;50.768;6.724;2023-02-13T02:04:24;102236.63;;;6.26;82.02
74794;BME280;63320;50.768;6.724;2023-02-13T02:06:53;102237.53;;;6.33;82.21
74794;BME280;63320;50.768;6.724;2023-02-13T02:09:24;102240.09;;;6.20;81.90
74794;BME280;63320;50.768;6.724;2023-02-13T02:11:52;102241.84;;;6.18;82.43
74794;BME280;63320;50.768;6.724;2023-02-13T02:14:19;102243.56;;;6.10;82.06
74794;BME280;63320;50.768;6.724;2023-02-13T02:16:44;102247.91;;;6.05;82.06
74794;BME280;63320;50.768;6.724;2023-02-13T02:19:14;102247.88;;;6.01;82.26
74794;BME280;63320;50.768;6.724;2023-02-13T02:22:13;102247.88;;;6.02;82.53
74794;BME280;63320;50.768;6.724;2023-02-13T02:25:01;102252.22;;;5.97;82.28
74794;BME280;63320;50.768;6.724;2023-02-13T02:27:39;102248.66;;;5.83;82.58
74794;BME280;63320;50.768;6.724;2023-02-13T02:33:21;102243.50;;;5.96;82.46
74794;BME280;63320;50.768;6.724;2023-02-13T02:36:00;102234.78;;;5.91;82.10
74794;BME280;63320;50.768;6.724;2023-02-13T02:38:41;102239.97;;;5.90;82.44
74794;BME280;63320;50.768;6.724;2023-02-13T02:41:14;102236.56;;;6.00;82.31
74794;BME280;63320;50.768;6.724;2023-02-13T02:43:54;102237.44;;;6.02;82.09
74794;BME280;63320;50.768;6.724;2023-02-13T02:46:28;102240.94;;;6.09;81.83
74794;BME280;63320;50.768;6.724;2023-02-13T02:49:03;102234.81;;;5.96;82.18
74794;BME280;63320;50.768;6.724;2023-02-13T02:51:36;102237.41;;;5.96;82.34
74794;BME280;63320;50.768;6.724;2023-02-13T02:54:07;102244.41;;;6.00;81.83
74794;BME280;63320;50.768;6.724;2023-02-13T02:56:39;102233.06;;;5.95;81.94
74794;BME280;63320;50.768;6.724;2023-02-13T02:59:10;102229.63;;;6.05;81.79
74794;BME280;63320;50.768;6.724;2023-02-13T03:01:38;102242.69;;;6.10;81.75
74794;BME280;63320;50.768;6.724;2023-02-13T03:04:12;102240.94;;;6.03;81.89
74794;BME280;63320;50.768;6.724;2023-02-13T03:06:44;102247.00;;;6.00;82.21
74794;BME280;63320;50.768;6.724;2023-02-13T03:09:14;102242.66;;;5.94;82.17
74794;BME280;63320;50.768;6.724;2023-02-13T03:11:42;102245.16;;;5.81;82.58
74794;BME280;63320;50.768;6.724;2023-02-13T03:14:10;102239.06;;;5.74;82.17
74794;BME280;63320;50.768;6.724;2023-02-13T03:16:37;102244.34;;;5.88;82.21
74794;BME280;63320;50.768;6.724;2023-02-13T03:19:03;102239.03;;;5.76;82.80
74794;BME280;63320;50.768;6.724;2023-02-13T03:21:36;102236.38;;;5.62;82.38
74794;BME280;63320;50.768;6.724;2023-02-13T03:24:13;102239.00;;;5.65;82.48
74794;BME280;63320;50.768;6.724;2023-02-13T03:26:47;102248.63;;;5.74;82.19
74794;BME280;63320;50.768;6.724;2023-02-13T03:29:33;102242.50;;;5.65;82.41
74794;BME280;63320;50.768;6.724;2023-02-13T03:32:08;102243.38;;;5.70;82.46
74794;BME280;63320;50.768;6.724;2023-02-13T03:34:37;102234.69;;;5.68;82.97
74794;BME280;63320;50.768;6.724;2023-02-13T03:37:09;102246.81;;;5.60;82.46
74794;BME280;63320;50.768;6.724;2023-02-13T03:39:43;102243.38;;;5.72;82.22
74794;BME280;63320;50.768;6.724;2023-02-13T03:42:17;102248.53;;;5.54;82.14
74794;BME280;63320;50.768;6.724;2023-02-13T03:44:48;102245.88;;;5.51;82.67
74794;BME280;63320;50.768;6.724;2023-02-13T03:47:15;102249.34;;;5.43;82.88
74794;BME280;63320;50.768;6.724;2023-02-13T03:49:43;102250.19;;;5.39;82.14
74794;BME280;63320;50.768;6.724;2023-02-13T03:52:16;102249.25;;;5.31;82.40
74794;BME280;63320;50.768;6.724;2023-02-13T03:54:45;102250.13;;;5.29;82.26
74794;BME280;63320;50.768;6.724;2023-02-13T03:57:14;102248.34;;;5.25;82.23
74794;BME280;63320;50.768;6.724;2023-02-13T03:59:42;102243.16;;;5.28;82.89
74794;BME280;63320;50.768;6.724;2023-02-13T04:02:11;102242.31;;;5.33;82.49
74794;BME280;63320;50.768;6.724;2023-02-13T04:04:44;102248.38;;;5.31;82.58
74794;BME280;63320;50.768;6.724;2023-02-13T04:07:14;102243.25;;;5.43;82.03
74794;BME280;63320;50.768;6.724;2023-02-13T04:09:41;102243.16;;;5.31;82.16
74794;BME280;63320;50.768;6.724;2023-02-13T04:12:13;102250.16;;;5.35;82.42
74794;BME280;63320;50.768;6.724;2023-02-13T04:14:49;102249.44;;;5.59;81.77
74794;BME280;63320;50.768;6.724;2023-02-13T04:17:21;102252.06;;;5.65;81.62
74794;BME280;63320;50.768;6.724;2023-02-13T04:19:48;102252.09;;;5.72;81.71
74794;BME280;63320;50.768;6.724;2023-02-13T04:22:15;102255.47;;;5.50;82.23
74794;BME280;63320;50.768;6.724;2023-02-13T04:24:40;102257.31;;;5.69;81.56
74794;BME280;63320;50.768;6.724;2023-02-13T04:27:05;102261.69;;;5.80;81.34
74794;BME280;63320;50.768;6.724;2023-02-13T04:29:31;102254.72;;;5.72;81.13
74794;BME280;63320;50.768;6.724;2023-02-13T04:31:56;102262.63;;;5.88;80.72
74794;BME280;63320;50.768;6.724;2023-02-13T04:34:22;102256.44;;;5.69;80.86
74794;BME280;63320;50.768;6.724;2023-02-13T04:36:47;102259.09;;;5.84;80.64
74794;BME280;63320;50.768;6.724;2023-02-13T04:39:14;102252.94;;;5.64;81.12
74794;BME280;63320;50.768;6.724;2023-02-13T04:41:39;102257.28;;;5.65;81.29
74794;BME280;63320;50.768;6.724;2023-02-13T04:44:05;102256.31;;;5.51;81.37
74794;BME280;63320;50.768;6.724;2023-02-13T04:46:30;102257.19;;;5.51;81.59
74794;BME280;63320;50.768;6.724;2023-02-13T04:48:55;102250.25;;;5.53;81.79
74794;BME280;63320;50.768;6.724;2023-02-13T04:51:21;102252.75;;;5.33;82.43
74794;BME280;63320;50.768;6.724;2023-02-13T04:53:46;102248.44;;;5.38;82.45
74794;BME280;63320;50.768;6.724;2023-02-13T04:56:13;102242.28;;;5.32;82.46
74794;BME280;63320;50.768;6.724;2023-02-13T04:58:38;102242.44;;;5.53;81.60
74794;BME280;63320;50.768;6.724;2023-02-13T05:01:10;102240.63;;;5.38;81.68
74794;BME280;63320;50.768;6.724;2023-02-13T05:03:36;102241.44;;;5.31;81.97
74794;BME280;63320;50.768;6.724;2023-02-13T05:06:01;102236.22;;;5.28;82.63
74794;BME280;63320;50.768;6.724;2023-02-13T05:08:26;102229.25;;;5.30;82.73
74794;BME280;63320;50.768;6.724;2023-02-13T05:10:52;102238.88;;;5.39;81.82
74794;BME280;63320;50.768;6.724;2023-02-13T05:13:18;102238.94;;;5.48;81.60
74794;BME280;63320;50.768;6.724;2023-02-13T05:15:44;102237.16;;;5.47;81.97
74794;BME280;63320;50.768;6.724;2023-02-13T05:18:09;102236.25;;;5.42;81.92
74794;BME280;63320;50.768;6.724;2023-02-13T05:20:34;102239.59;;;5.15;82.12
74794;BME280;63320;50.768;6.724;2023-02-13T05:23:00;102241.34;;;5.14;82.44
74794;BME280;63320;50.768;6.724;2023-02-13T05:25:25;102243.06;;;5.14;82.37
74794;BME280;63320;50.768;6.724;2023-02-13T05:27:51;102242.22;;;5.19;82.25
74794;BME280;63320;50.768;6.724;2023-02-13T05:30:18;102241.38;;;5.20;82.51
74794;BME280;63320;50.768;6.724;2023-02-13T05:32:43;102243.91;;;5.10;82.42
74794;BME280;63320;50.768;6.724;2023-02-13T05:35:08;102248.28;;;5.17;82.48
74794;BME280;63320;50.768;6.724;2023-02-13T05:37:34;102244.84;;;5.18;82.14
74794;BME280;63320;50.768;6.724;2023-02-13T05:39:59;102243.97;;;5.20;81.93
74794;BME280;63320;50.768;6.724;2023-02-13T05:42:24;102247.41;;;5.15;81.75
74794;BME280;63320;50.768;6.724;2023-02-13T05:44:50;102241.28;;;5.11;82.29
74794;BME280;63320;50.768;6.724;2023-02-13T05:47:16;102241.38;;;5.17;82.12
74794;BME280;63320;50.768;6.724;2023-02-13T05:49:41;102248.28;;;5.15;81.68
74794;BME280;63320;50.768;6.724;2023-02-13T05:52:07;102251.78;;;5.17;82.09
74794;BME280;63320;50.768;6.724;2023-02-13T05:54:32;102248.31;;;5.20;81.82
74794;BME280;63320;50.768;6.724;2023-02-13T05:56:57;102253.53;;;5.18;81.64
74794;BME280;63320;50.768;6.724;2023-02-13T05:59:23;102253.44;;;5.05;82.12
74794;BME280;63320;50.768;6.724;2023-02-13T06:01:48;102258.72;;;5.14;82.13
74794;BME280;63320;50.768;6.724;2023-02-13T06:04:15;102255.16;;;5.06;82.19
74794;BME280;63320;50.768;6.724;2023-02-13T06:06:40;102255.13;;;5.00;82.56
74794;BME280;63320;50.768;6.724;2023-02-13T06:09:05;102263.00;;;5.04;82.09
74794;BME280;63320;50.768;6.724;2023-02-13T06:11:31;102251.66;;;4.99;82.20
74794;BME280;63320;50.768;6.724;2023-02-13T06:13:56;102256.78;;;4.90;82.36
74794;BME280;63320;50.768;6.724;2023-02-13T06:16:22;102253.41;;;5.02;82.83
74794;BME280;63320;50.768;6.724;2023-02-13T06:18:47;102255.19;;;5.07;81.77
74794;BME280;63320;50.768;6.724;2023-02-13T06:21:14;102249.91;;;5.01;82.31
74794;BME280;63320;50.768;6.724;2023-02-13T06:23:39;102257.81;;;5.07;81.76
74794;BME280;63320;50.768;6.724;2023-02-13T06:26:06;102255.06;;;4.90;82.50
74794;BME280;63320;50.768;6.724;2023-02-13T06:28:32;102246.38;;;4.90;82.50
74794;BME280;63320;50.768;6.724;2023-02-13T06:30:58;102249.88;;;4.97;81.98
74794;BME280;63320;50.768;6.724;2023-02-13T06:33:23;102257.69;;;4.97;81.90
74794;BME280;63320;50.768;6.724;2023-02-13T06:35:49;102260.22;;;4.84;82.69
74794;BME280;63320;50.768;6.724;2023-02-13T06:38:16;102262.00;;;4.90;82.59
74794;BME280;63320;50.768;6.724;2023-02-13T06:40:41;102252.66;;;5.18;81.57
74794;BME280;63320;50.768;6.724;2023-02-13T06:43:06;102250.00;;;5.12;81.47
74794;BME280;63320;50.768;6.724;2023-02-13T06:45:31;102254.28;;;5.02;81.76
74794;BME280;63320;50.768;6.724;2023-02-13T06:47:57;102253.34;;;4.92;81.94
74794;BME280;63320;50.768;6.724;2023-02-13T06:50:22;102243.00;;;5.05;81.74
74794;BME280;63320;50.768;6.724;2023-02-13T06:52:49;102250.00;;;5.07;81.29
74794;BME280;63320;50.768;6.724;2023-02-13T06:55:17;102250.75;;;4.94;82.14
74794;BME280;63320;50.768;6.724;2023-02-13T06:57:43;102243.06;;;5.14;81.04
74794;BME280;63320;50.768;6.724;2023-02-13T07:00:09;102244.88;;;5.23;80.48
74794;BME280;63320;50.768;6.724;2023-02-13T07:02:36;102243.84;;;4.99;81.64
74794;BME280;63320;50.768;6.724;2023-02-13T07:05:01;102242.97;;;5.02;81.31
74794;BME280;63320;50.768;6.724;2023-02-13T07:07:26;102237.75;;;5.00;81.68
74794;BME280;63320;50.768;6.724;2023-02-13T07:09:52;102240.50;;;5.18;81.04
74794;BME280;63320;50.768;6.724;2023-02-13T07:12:18;102251.78;;;5.20;80.60
74794;BME280;63320;50.768;6.724;2023-02-13T07:14:44;102246.47;;;5.02;81.11
74794;BME280;63320;50.768;6.724;2023-02-13T07:17:09;102254.22;;;4.94;81.64
74794;BME280;63320;50.768;6.724;2023-02-13T07:19:34;102242.16;;;5.10;81.46
74794;BME280;63320;50.768;6.724;2023-02-13T07:22:00;102246.63;;;5.24;81.02
74794;BME280;63320;50.768;6.724;2023-02-13T07:24:25;102242.16;;;5.09;80.55
74794;BME280;63320;50.768;6.724;2023-02-13T07:26:50;102241.38;;;5.20;80.60
74794;BME280;63320;50.768;6.724;2023-02-13T07:29:17;102250.03;;;5.13;80.86
74794;BME280;63320;50.768;6.724;2023-02-13T07:31:42;102242.28;;;5.30;80.28
74794;BME280;63320;50.768;6.724;2023-02-13T07:34:07;102245.75;;;5.26;80.70
74794;BME280;63320;50.768;6.724;2023-02-13T07:36:33;102244.94;;;5.36;80.01
74794;BME280;63320;50.768;6.724;2023-02-13T07:38:58;102240.66;;;5.44;80.15
74794;BME280;63320;50.768;6.724;2023-02-13T07:41:24;102246.50;;;5.11;80.43
74794;BME280;63320;50.768;6.724;2023-02-13T07:43:49;102244.00;;;5.25;80.92
74794;BME280;63320;50.768;6.724;2023-02-13T07:46:16;102244.78;;;5.09;80.83
74794;BME280;63320;50.768;6.724;2023-02-13T07:48:42;102238.69;;;5.10;81.28
74794;BME280;63320;50.768;6.724;2023-02-13T07:51:08;102238.72;;;5.16;80.77
74794;BME280;63320;50.768;6.724;2023-02-13T07:53:33;102243.97;;;5.20;80.89
74794;BME280;63320;50.768;6.724;2023-02-13T07:56:04;102239.63;;;5.19;81.02
74794;BME280;63320;50.768;6.724;2023-02-13T07:58:29;102249.22;;;5.22;80.96
74794;BME280;63320;50.768;6.724;2023-02-13T08:00:54;102244.88;;;5.23;80.82
74794;BME280;63320;50.768;6.724;2023-02-13T08:03:21;102236.03;;;5.05;81.20
74794;BME280;63320;50.768;6.724;2023-02-13T08:05:47;102246.47;;;5.02;81.92
74794;BME280;63320;50.768;6.724;2023-02-13T08:08:12;102244.75;;;5.04;82.10
74794;BME280;63320;50.768;6.724;2023-02-13T08:10:39;102248.25;;;5.11;81.48
74794;BME280;63320;50.768;6.724;2023-02-13T08:13:05;102257.00;;;5.17;81.17
74794;BME280;63320;50.768;6.724;2023-02-13T08:15:31;102257.84;;;5.16;81.81
74794;BME280;63320;50.768;6.724;2023-02-13T08:17:56;102252.72;;;5.32;81.08
74794;BME280;63320;50.768;6.724;2023-02-13T08:20:23;102262.28;;;5.30;81.00
74794;BME280;63320;50.768;6.724;2023-02-13T08:22:49;102257.91;;;5.24;81.74
74794;BME280;63320;50.768;6.724;2023-02-13T08:25:14;102251.81;;;5.27;81.73
74794;BME280;63320;50.768;6.724;2023-02-13T08:27:40;102260.56;;;5.32;81.75
74794;BME280;63320;50.768;6.724;2023-02-13T08:30:06;102255.41;;;5.38;81.84
74794;BME280;63320;50.768;6.724;2023-02-13T08:32:32;102265.88;;;5.47;81.34
74794;BME280;63320;50.768;6.724;2023-02-13T08:34:57;102263.34;;;5.58;81.10
74794;BME280;63320;50.768;6.724;2023-02-13T08:37:24;102261.59;;;5.60;81.10
74794;BME280;63320;50.768;6.724;2023-02-13T08:39:49;102259.03;;;5.67;81.17
74794;BME280;63320;50.768;6.724;2023-02-13T08:42:15;102266.00;;;5.70;81.19
74794;BME280;63320;50.768;6.724;2023-02-13T08:44:40;102272.03;;;5.61;81.85
74794;BME280;63320;50.768;6.724;2023-02-13T08:47:06;102270.41;;;5.79;81.42
74794;BME280;63320;50.768;6.724;2023-02-13T08:49:31;102271.22;;;5.71;82.04
74794;BME280;63320;50.768;6.724;2023-02-13T08:51:57;102265.19;;;5.83;81.79
74794;BME280;63320;50.768;6.724;2023-02-13T08:54:24;102268.69;;;5.90;81.57
74794;BME280;63320;50.768;6.724;2023-02-13T08:56:49;102270.41;;;5.85;81.87
74794;BME280;63320;50.768;6.724;2023-02-13T08:59:14;102276.59;;;5.93;81.56
74794;BME280;63320;50.768;6.724;2023-02-13T09:01:40;102267.91;;;6.02;81.45
74794;BME280;63320;50.768;6.724;2023-02-13T09:04:05;102266.19;;;6.08;81.31
74794;BME280;63320;50.768;6.724;2023-02-13T09:06:30;102267.94;;;6.08;81.09
74794;BME280;63320;50.768;6.724;2023-02-13T09:08:56;102269.69;;;6.10;81.16
74794;BME280;63320;50.768;6.724;2023-02-13T09:11:23;102267.09;;;6.21;81.19
74794;BME280;63320;50.768;6.724;2023-02-13T09:13:48;102266.22;;;6.25;80.68
74794;BME280;63320;50.768;6.724;2023-02-13T09:16:16;102264.50;;;6.26;80.69
74794;BME280;63320;50.768;6.724;2023-02-13T09:18:41;102269.72;;;6.32;80.71
74794;BME280;63320;50.768;6.724;2023-02-13T09:21:10;102263.63;;;6.37;80.41
74794;BME280;63320;50.768;6.724;2023-02-13T09:23:37;102269.78;;;6.44;80.11
74794;BME280;63320;50.768;6.724;2023-02-13T09:26:04;102269.78;;;6.44;80.35
74794;BME280;63320;50.768;6.724;2023-02-13T09:28:33;102267.16;;;6.50;80.04
74794;BME280;63320;50.768;6.724;2023-02-13T09:30:59;102262.81;;;6.54;79.81
74794;BME280;63320;50.768;6.724;2023-02-13T09:33:25;102261.97;;;6.58;80.04
74794;BME280;63320;50.768;6.724;2023-02-13T09:35:50;102263.69;;;6.63;79.52
74794;BME280;63320;50.768;6.724;2023-02-13T09:38:16;102259.34;;;6.65;79.69
74794;BME280;63320;50.768;6.724;2023-02-13T09:40:46;102272.41;;;6.65;79.51
74794;BME280;63320;50.768;6.724;2023-02-13T09:43:17;102262.81;;;6.66;79.35
74794;BME280;63320;50.768;6.724;2023-02-13T09:45:49;102264.56;;;6.74;79.37
74794;BME280;63320;50.768;6.724;2023-02-13T09:48:23;102270.69;;;6.73;79.23
74794;BME280;63320;50.768;6.724;2023-02-13T09:50:52;102272.44;;;6.79;78.70
74794;BME280;63320;50.768;6.724;2023-02-13T09:53:21;102266.31;;;6.79;79.25
74794;BME280;63320;50.768;6.724;2023-02-13T09:55:53;102268.03;;;6.87;78.74
74794;BME280;63320;50.768;6.724;2023-02-13T09:58:29;102262.84;;;6.89;78.82
74794;BME280;63320;50.768;6.724;2023-02-13T10:01:01;102263.69;;;6.92;79.06
74794;BME280;63320;50.768;6.724;2023-02-13T10:03:28;102278.53;;;6.99;79.12
74794;BME280;63320;50.768;6.724;2023-02-13T10:06:02;102271.56;;;7.03;79.17
74794;BME280;63320;50.768;6.724;2023-02-13T10:08:44;102270.69;;;7.09;79.17
74794;BME280;63320;50.768;6.724;2023-02-13T10:11:23;102269.78;;;7.19;78.50
74794;BME280;63320;50.768;6.724;2023-02-13T10:14:00;102265.41;;;7.16;77.97
74794;BME280;63320;50.768;6.724;2023-02-13T10:16:29;102269.78;;;7.17;78.24
74794;BME280;63320;50.768;6.724;2023-02-13T10:19:00;102276.75;;;7.34;77.13
74794;BME280;63320;50.768;6.724;2023-02-13T10:21:29;102283.69;;;7.41;77.48
74794;BME280;63320;50.768;6.724;2023-02-13T10:24:01;102278.47;;;7.32;77.74
74794;BME280;63320;50.768;6.724;2023-02-13T10:26:31;102279.38;;;7.38;77.72
74794;BME280;63320;50.768;6.724;2023-02-13T10:29:02;102277.59;;;7.45;77.36
74794;BME280;63320;50.768;6.724;2023-02-13T10:31:30;102275.84;;;7.41;77.66
74794;BME280;63320;50.768;6.724;2023-02-13T10:33:59;102278.44;;;7.56;77.36
74794;BME280;63320;50.768;6.724;2023-02-13T10:36:28;102276.66;;;7.67;77.12
74794;BME280;63320;50.768;6.724;2023-02-13T10:38:56;102283.69;;;7.59;77.17
74794;BME280;63320;50.768;6.724;2023-02-13T10:41:34;102274.03;;;7.63;77.29
74794;BME280;63320;50.768;6.724;2023-02-13T10:44:17;102269.69;;;7.66;76.93
74794;BME280;63320;50.768;6.724;2023-02-13T10:46:56;102267.91;;;7.73;77.00
74794;BME280;63320;50.768;6.724;2023-02-13T10:49:36;102267.00;;;7.82;76.65
74794;BME280;63320;50.768;6.724;2023-02-13T10:52:17;102254.75;;;7.90;76.76
74794;BME280;63320;50.768;6.724;2023-02-13T10:54:58;102262.59;;;7.96;77.04
74794;BME280;63320;50.768;6.724;2023-02-13T10:57:32;102259.06;;;8.01;76.38
74794;BME280;63320;50.768;6.724;2023-02-13T11:00:09;102254.72;;;7.96;76.13
74794;BME280;63320;50.768;6.724;2023-02-13T11:02:39;102249.47;;;7.93;76.04
74794;BME280;63320;50.768;6.724;2023-02-13T11:05:13;102250.34;;;8.04;76.03
74794;BME280;63320;50.768;6.724;2023-02-13T11:07:40;102240.63;;;8.17;74.60
74794;BME280;63320;50.768;6.724;2023-02-13T11:10:13;102239.72;;;8.25;75.03
74794;BME280;63320;50.768;6.724;2023-02-13T11:12:39;102240.59;;;8.24;75.29
74794;BME280;63320;50.768;6.724;2023-02-13T11:15:06;102236.19;;;8.39;74.98
74794;BME280;63320;50.768;6.724;2023-02-13T11:17:34;102237.91;;;8.40;75.18
74794;BME280;63320;50.768;6.724;2023-02-13T11:20:20;102224.75;;;8.47;75.28
74794;BME280;63320;50.768;6.724;2023-02-13T11:22:47;102229.13;;;8.47;75.40
74794;BME280;63320;50.768;6.724;2023-02-13T11:25:17;102219.41;;;8.58;75.68
74794;BME280;63320;50.768;6.724;2023-02-13T11:27:45;102210.59;;;8.67;75.01
74794;BME280;63320;50.768;6.724;2023-02-13T11:30:30;102204.47;;;8.69;75.00
74794;BME280;63320;50.768;6.724;2023-02-13T11:32:58;102207.88;;;8.77;75.22
74794;BME280;63320;50.768;6.724;2023-02-13T11:35:28;102203.47;;;8.82;74.72
74794;BME280;63320;50.768;6.724;2023-02-13T11:38:19;102197.41;;;8.77;74.99
74794;BME280;63320;50.768;6.724;2023-02-13T11:40:49;102199.88;;;8.94;74.17
74794;BME280;63320;50.768;6.724;2023-02-13T11:43:18;102197.31;;;8.87;74.08
74794;BME280;63320;50.768;6.724;2023-02-13T11:45:59;102199.94;;;8.87;74.46
74794;BME280;63320;50.768;6.724;2023-02-13T11:48:25;102196.41;;;8.91;74.34
74794;BME280;63320;50.768;6.724;2023-02-13T11:50:52;102186.81;;;8.88;74.29
74794;BME280;63320;50.768;6.724;2023-02-13T11:53:21;102186.81;;;8.90;73.76
74794;BME280;63320;50.768;6.724;2023-02-13T11:56:01;102189.34;;;8.97;73.84
74794;BME280;63320;50.768;6.724;2023-02-13T11:58:28;102182.22;;;9.08;72.56
74794;BME280;63320;50.768;6.724;2023-02-13T12:04:12;102181.22;;;9.22;72.38
74794;BME280;63320;50.768;6.724;2023-02-13T12:06:39;102172.28;;;9.37;71.80
74794;BME280;63320;50.768;6.724;2023-02-13T12:09:10;102172.03;;;9.59;70.98
74794;BME280;63320;50.768;6.724;2023-02-13T12:11:40;102164.97;;;9.65;69.76
74794;BME280;63320;50.768;6.724;2023-02-13T12:14:09;102169.22;;;9.72;70.00
74794;BME280;63320;50.768;6.724;2023-02-13T12:16:39;102168.19;;;9.83;69.43
74794;BME280;63320;50.768;6.724;2023-02-13T12:19:10;102164.72;;;9.81;68.66
74794;BME280;63320;50.768;6.724;2023-02-13T12:22:02;102161.66;;;9.49;69.84
74794;BME280;63320;50.768;6.724;2023-02-13T12:24:40;102163.09;;;9.71;69.87
74794;BME280;63320;50.768;6.724;2023-02-13T12:27:18;102162.72;;;9.99;69.09
74794;BME280;63320;50.768;6.724;2023-02-13T12:30:03;102159.94;;;10.09;68.07
74794;BME280;63320;50.768;6.724;2023-02-13T12:32:39;102160.09;;;10.00;68.92
74794;BME280;63320;50.768;6.724;2023-02-13T12:35:34;102149.28;;;10.20;68.36
74794;BME280;63320;50.768;6.724;2023-02-13T12:38:13;102147.47;;;10.25;67.39
74794;BME280;63320;50.768;6.724;2023-02-13T12:41:12;102141.31;;;10.23;67.96
74794;BME280;63320;50.768;6.724;2023-02-13T12:44:01;102139.38;;;10.37;67.92
74794;BME280;63320;50.768;6.724;2023-02-13T12:46:33;102128.25;;;10.19;68.91
74794;BME280;63320;50.768;6.724;2023-02-13T12:49:15;102128.16;;;10.26;68.25
74794;BME280;63320;50.768;6.724;2023-02-13T12:51:49;102130.75;;;10.28;67.97
74794;BME280;63320;50.768;6.724;2023-02-13T12:54:43;102129.28;;;10.10;68.80
74794;BME280;63320;50.768;6.724;2023-02-13T12:57:34;102120.13;;;10.35;67.68
74794;BME280;63320;50.768;6.724;2023-02-13T13:00:12;102113.00;;;10.42;66.73
74794;BME280;63320;50.768;6.724;2023-02-13T13:05:58;102110.16;;;10.53;66.85
74794;BME280;63320;50.768;6.724;2023-02-13T13:08:37;102112.09;;;10.45;67.13
74794;BME280;63320;50.768;6.724;2023-02-13T13:11:21;102105.88;;;10.47;67.49
74794;BME280;63320;50.768;6.724;2023-02-13T13:13:56;102105.78;;;10.55;67.14
74794;BME280;63320;50.768;6.724;2023-02-13T13:16:33;102101.63;;;10.88;66.06
74794;BME280;63320;50.768;6.724;2023-02-13T13:19:08;102106.09;;;10.84;66.35
74794;BME280;63320;50.768;6.724;2023-02-13T13:21:42;102107.66;;;10.93;66.36
74794;BME280;63320;50.768;6.724;2023-02-13T13:24:21;102109.59;;;11.28;64.60